createdAt,value
2023-04-28T00:00:30.693Z,12.33
2023-04-28T00:01:30.637Z,12.33
2023-04-28T00:02:30.825Z,12.36
2023-04-28T00:03:30.791Z,12.36
2023-04-28T00:04:30.806Z,12.34
2023-04-28T00:05:30.633Z,12.34
2023-04-28T00:06:30.621Z,12.34
2023-04-28T00:07:38.164Z,12.34
2023-04-28T00:08:30.570Z,12.34
2023-04-28T00:09:30.539Z,12.34
2023-04-28T00:10:30.540Z,12.34
2023-04-28T00:11:30.508Z,12.33
2023-04-28T00:12:30.515Z,12.31
2023-04-28T00:13:30.510Z,12.31
2023-04-28T00:14:30.481Z,12.30
2023-04-28T00:15:30.484Z,12.26
2023-04-28T00:16:30.472Z,12.26
2023-04-28T00:17:30.521Z,12.26
2023-04-28T00:18:30.562Z,12.26
2023-04-28T00:19:30.411Z,12.23
2023-04-28T00:20:30.408Z,12.21
2023-04-28T00:21:30.423Z,12.21
2023-04-28T00:22:30.388Z,12.19
2023-04-28T00:23:30.370Z,12.18
2023-04-28T00:24:30.336Z,12.19
2023-04-28T00:25:30.366Z,12.18
2023-04-28T00:26:30.347Z,12.18
2023-04-28T00:27:30.317Z,12.19
2023-04-28T00:28:34.781Z,12.21
2023-04-28T00:29:30.302Z,12.19
2023-04-28T00:30:30.291Z,12.19
2023-04-28T00:31:30.292Z,12.19
2023-04-28T00:32:30.248Z,12.16
2023-04-28T00:33:30.248Z,12.16
2023-04-28T00:34:30.218Z,12.18
2023-04-28T00:35:30.234Z,12.15
2023-04-28T00:36:30.184Z,12.13
2023-04-28T00:37:30.167Z,12.15
2023-04-28T00:38:30.144Z,12.15
2023-04-28T00:39:30.177Z,12.15
2023-04-28T00:40:30.124Z,12.15
2023-04-28T00:41:30.157Z,12.15
2023-04-28T00:42:30.123Z,12.16
2023-04-28T00:43:30.147Z,12.16
2023-04-28T00:44:30.079Z,12.18
2023-04-28T00:45:30.121Z,12.16
2023-04-28T00:46:30.069Z,12.13
2023-04-28T00:47:30.069Z,12.13
2023-04-28T00:48:30.058Z,12.15
2023-04-28T00:49:30.015Z,12.13
2023-04-28T00:50:29.976Z,12.13
2023-04-28T00:51:30.046Z,12.13
2023-04-28T00:52:29.964Z,12.13
2023-04-28T00:53:29.964Z,12.16
2023-04-28T00:54:29.947Z,12.15
2023-04-28T00:55:29.952Z,12.15
2023-04-28T00:56:29.905Z,12.15
2023-04-28T00:57:29.952Z,12.13
2023-04-28T00:58:29.917Z,12.13
2023-04-28T00:59:29.889Z,12.15
2023-04-28T01:00:29.889Z,12.15
2023-04-28T01:01:29.873Z,12.15
2023-04-28T01:02:29.984Z,12.16
2023-04-28T01:03:29.985Z,12.15
2023-04-28T01:04:30.029Z,12.16
2023-04-28T01:05:29.838Z,12.15
2023-04-28T01:06:29.788Z,12.15
2023-04-28T01:07:29.858Z,12.15
2023-04-28T01:08:29.812Z,12.15
2023-04-28T01:09:29.782Z,12.13
2023-04-28T01:10:29.740Z,12.11
2023-04-28T01:11:29.757Z,12.08
2023-04-28T01:12:29.726Z,12.07
2023-04-28T01:13:29.721Z,12.05
2023-04-28T01:14:29.715Z,12.01
2023-04-28T01:15:29.739Z,11.96
2023-04-28T01:16:29.700Z,11.88
2023-04-28T01:17:29.722Z,11.87
2023-04-28T01:18:29.644Z,11.85
2023-04-28T01:19:29.657Z,11.82
2023-04-28T01:20:29.645Z,11.79
2023-04-28T01:21:29.630Z,11.81
2023-04-28T01:22:29.601Z,11.78
2023-04-28T01:23:29.575Z,11.78
2023-04-28T01:24:29.569Z,11.75
2023-04-28T01:25:29.552Z,11.75
2023-04-28T01:26:31.941Z,11.77
2023-04-28T01:27:29.530Z,11.75
2023-04-28T01:28:29.513Z,11.74
2023-04-28T01:29:29.505Z,11.72
2023-04-28T01:30:29.536Z,11.72
2023-04-28T01:31:29.583Z,11.72
2023-04-28T01:32:29.653Z,11.72
2023-04-28T01:33:29.439Z,11.67
2023-04-28T01:34:29.469Z,11.67
2023-04-28T01:35:29.443Z,11.66
2023-04-28T01:36:29.467Z,11.67
2023-04-28T01:37:29.412Z,11.70
2023-04-28T01:38:29.380Z,11.67
2023-04-28T01:39:29.378Z,11.67
2023-04-28T01:40:29.359Z,11.67
2023-04-28T01:41:29.367Z,11.67
2023-04-28T01:42:29.336Z,11.67
2023-04-28T01:43:29.330Z,11.67
2023-04-28T01:44:29.297Z,11.66
2023-04-28T01:45:29.332Z,11.64
2023-04-28T01:46:29.327Z,11.64
2023-04-28T01:47:29.303Z,11.62
2023-04-28T01:48:29.248Z,11.63
2023-04-28T01:49:29.227Z,11.64
2023-04-28T01:50:29.312Z,11.63
2023-04-28T01:51:29.217Z,11.64
2023-04-28T01:52:29.216Z,11.64
2023-04-28T01:53:29.170Z,11.64
2023-04-28T01:54:29.176Z,11.63
2023-04-28T01:55:29.161Z,11.63
2023-04-28T01:56:29.168Z,11.64
2023-04-28T01:57:29.137Z,11.63
2023-04-28T01:58:29.151Z,11.63
2023-04-28T01:59:29.108Z,11.63
2023-04-28T02:00:29.109Z,11.64
2023-04-28T02:01:29.108Z,11.64
2023-04-28T02:02:29.140Z,11.63
2023-04-28T02:03:29.279Z,11.63
2023-04-28T02:04:29.121Z,11.59
2023-04-28T02:05:29.038Z,11.59
2023-04-28T02:06:29.054Z,11.62
2023-04-28T02:07:28.992Z,11.60
2023-04-28T02:08:29.049Z,11.60
2023-04-28T02:09:28.971Z,11.59
2023-04-28T02:10:28.975Z,11.59
2023-04-28T02:11:28.941Z,11.57
2023-04-28T02:12:28.968Z,11.54
2023-04-28T02:13:28.912Z,11.54
2023-04-28T02:14:28.921Z,11.51
2023-04-28T02:15:28.909Z,11.49
2023-04-28T02:16:29.031Z,11.49
2023-04-28T02:17:28.938Z,11.48
2023-04-28T02:18:28.863Z,11.46
2023-04-28T02:19:28.828Z,11.48
2023-04-28T02:20:30.719Z,11.48
2023-04-28T02:21:28.863Z,11.45
2023-04-28T02:22:28.808Z,11.46
2023-04-28T02:23:28.809Z,11.44
2023-04-28T02:24:28.781Z,11.45
2023-04-28T02:25:28.760Z,11.42
2023-04-28T02:26:28.765Z,11.42
2023-04-28T02:27:28.724Z,11.36
2023-04-28T02:28:28.765Z,11.35
2023-04-28T02:29:28.699Z,11.31
2023-04-28T02:30:28.696Z,11.33
2023-04-28T02:31:28.789Z,11.31
2023-04-28T02:32:28.724Z,11.30
2023-04-28T02:33:28.655Z,11.30
2023-04-28T02:34:28.679Z,11.33
2023-04-28T02:35:28.642Z,11.30
2023-04-28T02:36:28.625Z,11.30
2023-04-28T02:37:28.629Z,11.30
2023-04-28T02:38:28.628Z,11.28
2023-04-28T02:39:28.605Z,11.26
2023-04-28T02:40:28.577Z,11.24
2023-04-28T02:41:28.595Z,11.21
2023-04-28T02:42:28.620Z,11.20
2023-04-28T02:43:28.518Z,11.16
2023-04-28T02:44:28.516Z,11.13
2023-04-28T02:45:28.506Z,11.13
2023-04-28T02:46:28.528Z,11.11
2023-04-28T02:47:28.532Z,11.12
2023-04-28T02:48:28.468Z,11.13
2023-04-28T02:49:28.487Z,11.12
2023-04-28T02:50:28.443Z,11.13
2023-04-28T02:51:28.426Z,11.11
2023-04-28T02:52:28.424Z,11.11
2023-04-28T02:53:28.416Z,11.12
2023-04-28T02:54:28.415Z,11.13
2023-04-28T02:55:28.363Z,11.17
2023-04-28T02:56:28.385Z,11.20
2023-04-28T02:57:28.353Z,11.17
2023-04-28T02:58:28.328Z,11.17
2023-04-28T02:59:28.323Z,11.16
2023-04-28T03:00:28.308Z,11.17
2023-04-28T03:01:28.342Z,11.19
2023-04-28T03:02:28.409Z,11.20
2023-04-28T03:03:28.434Z,11.20
2023-04-28T03:04:28.520Z,11.23
2023-04-28T03:05:28.265Z,11.23
2023-04-28T03:06:28.368Z,11.24
2023-04-28T03:07:28.294Z,11.23
2023-04-28T03:08:28.216Z,11.24
2023-04-28T03:09:28.229Z,11.23
2023-04-28T03:10:28.212Z,11.23
2023-04-28T03:11:28.181Z,11.23
2023-04-28T03:12:28.181Z,11.24
2023-04-28T03:13:28.175Z,11.23
2023-04-28T03:14:28.136Z,11.24
2023-04-28T03:15:28.107Z,11.26
2023-04-28T03:16:28.201Z,11.27
2023-04-28T03:17:28.158Z,11.27
2023-04-28T03:18:28.163Z,11.27
2023-04-28T03:19:28.093Z,11.26
2023-04-28T03:20:28.089Z,11.23
2023-04-28T03:21:28.032Z,11.24
2023-04-28T03:22:28.043Z,11.24
2023-04-28T03:23:28.022Z,11.26
2023-04-28T03:24:28.026Z,11.26
2023-04-28T03:25:28.020Z,11.24
2023-04-28T03:26:28.021Z,11.23
2023-04-28T03:27:27.994Z,11.23
2023-04-28T03:28:28.045Z,11.24
2023-04-28T03:29:27.953Z,11.23
2023-04-28T03:30:27.962Z,11.21
2023-04-28T03:31:27.926Z,11.21
2023-04-28T03:32:27.939Z,11.21
2023-04-28T03:33:27.939Z,11.20
2023-04-28T03:34:27.903Z,11.21
2023-04-28T03:35:27.851Z,11.21
2023-04-28T03:36:27.858Z,11.21
2023-04-28T03:37:27.862Z,11.21
2023-04-28T03:38:27.840Z,11.20
2023-04-28T03:39:27.840Z,11.21
2023-04-28T03:40:27.834Z,11.17
2023-04-28T03:41:27.778Z,11.13
2023-04-28T03:42:27.782Z,11.11
2023-04-28T03:43:27.823Z,11.08
2023-04-28T03:44:27.777Z,11.03
2023-04-28T03:45:27.750Z,11.03
2023-04-28T03:46:27.785Z,11.02
2023-04-28T03:47:27.707Z,10.99
2023-04-28T03:48:27.896Z,10.99
2023-04-28T03:49:27.697Z,10.95
2023-04-28T03:50:27.698Z,10.94
2023-04-28T03:51:27.678Z,10.93
2023-04-28T03:52:27.693Z,10.93
2023-04-28T03:53:27.678Z,10.91
2023-04-28T03:54:27.624Z,10.88
2023-04-28T03:55:27.634Z,10.88
2023-04-28T03:56:27.614Z,10.87
2023-04-28T03:57:27.571Z,10.84
2023-04-28T03:58:27.596Z,10.84
2023-04-28T03:59:27.545Z,10.81
2023-04-28T04:00:27.589Z,10.81
2023-04-28T04:01:28.042Z,10.78
2023-04-28T04:02:27.660Z,10.75
2023-04-28T04:03:27.757Z,10.73
2023-04-28T04:04:27.863Z,10.76
2023-04-28T04:05:27.520Z,10.78
2023-04-28T04:06:27.465Z,10.76
2023-04-28T04:07:27.504Z,10.76
2023-04-28T04:08:27.514Z,10.76
2023-04-28T04:09:27.453Z,10.76
2023-04-28T04:10:27.420Z,10.75
2023-04-28T04:11:27.432Z,10.73
2023-04-28T04:12:27.427Z,10.72
2023-04-28T04:13:27.426Z,10.69
2023-04-28T04:14:27.373Z,10.70
2023-04-28T04:15:27.343Z,10.72
2023-04-28T04:16:27.383Z,10.72
2023-04-28T04:17:27.414Z,10.73
2023-04-28T04:18:27.403Z,10.70
2023-04-28T04:19:27.292Z,10.69
2023-04-28T04:20:27.313Z,10.72
2023-04-28T04:21:27.265Z,10.70
2023-04-28T04:22:27.361Z,10.73
2023-04-28T04:23:27.263Z,10.70
2023-04-28T04:24:27.257Z,10.75
2023-04-28T04:25:27.229Z,10.76
2023-04-28T04:26:27.236Z,10.76
2023-04-28T04:27:27.249Z,10.78
2023-04-28T04:28:27.241Z,10.76
2023-04-28T04:29:27.201Z,10.76
2023-04-28T04:30:27.154Z,10.80
2023-04-28T04:31:27.211Z,10.78
2023-04-28T04:32:27.218Z,10.80
2023-04-28T04:33:27.133Z,10.81
2023-04-28T04:34:27.124Z,10.80
2023-04-28T04:35:27.098Z,10.81
2023-04-28T04:36:27.073Z,10.81
2023-04-28T04:37:27.109Z,10.83
2023-04-28T04:38:27.037Z,10.83
2023-04-28T04:39:27.065Z,10.84
2023-04-28T04:40:27.045Z,10.84
2023-04-28T04:41:27.050Z,10.83
2023-04-28T04:42:27.019Z,10.84
2023-04-28T04:43:26.995Z,10.83
2023-04-28T04:44:26.969Z,10.86
2023-04-28T04:45:26.963Z,10.87
2023-04-28T04:46:27.023Z,10.90
2023-04-28T04:47:27.003Z,10.90
2023-04-28T04:48:26.948Z,10.90
2023-04-28T04:49:27.042Z,10.93
2023-04-28T04:50:26.910Z,10.91
2023-04-28T04:51:26.916Z,10.93
2023-04-28T04:52:26.938Z,10.93
2023-04-28T04:53:26.981Z,10.90
2023-04-28T04:54:26.847Z,10.91
2023-04-28T04:55:26.873Z,10.88
2023-04-28T04:56:26.806Z,10.90
2023-04-28T04:57:26.809Z,10.91
2023-04-28T04:58:26.860Z,10.93
2023-04-28T04:59:26.809Z,10.95
2023-04-28T05:00:26.759Z,10.95
2023-04-28T05:01:26.798Z,10.98
2023-04-28T05:02:26.765Z,10.94
2023-04-28T05:03:26.982Z,10.93
2023-04-28T05:04:26.785Z,10.94
2023-04-28T05:05:26.798Z,10.91
2023-04-28T05:06:26.697Z,10.90
2023-04-28T05:07:26.716Z,10.93
2023-04-28T05:08:26.681Z,10.93
2023-04-28T05:09:26.664Z,10.95
2023-04-28T05:10:26.636Z,10.95
2023-04-28T05:11:26.667Z,10.93
2023-04-28T05:12:26.658Z,10.93
2023-04-28T05:13:26.627Z,10.93
2023-04-28T05:14:26.609Z,10.94
2023-04-28T05:15:26.577Z,10.95
2023-04-28T05:16:26.613Z,10.95
2023-04-28T05:17:26.592Z,10.95
2023-04-28T05:18:26.581Z,10.95
2023-04-28T05:19:26.531Z,10.95
2023-04-28T05:20:26.541Z,10.91
2023-04-28T05:21:26.509Z,10.93
2023-04-28T05:22:26.529Z,10.91
2023-04-28T05:23:26.519Z,10.93
2023-04-28T05:24:26.451Z,10.93
2023-04-28T05:25:26.464Z,10.93
2023-04-28T05:26:26.464Z,10.93
2023-04-28T05:27:26.453Z,10.93
2023-04-28T05:28:26.439Z,10.91
2023-04-28T05:29:26.409Z,10.93
2023-04-28T05:30:26.405Z,10.91
2023-04-28T05:31:26.457Z,10.91
2023-04-28T05:32:26.389Z,10.91
2023-04-28T05:33:26.379Z,10.88
2023-04-28T05:34:26.351Z,10.86
2023-04-28T05:35:26.339Z,10.84
2023-04-28T05:36:26.328Z,10.86
2023-04-28T05:37:26.301Z,10.90
2023-04-28T05:38:26.287Z,10.90
2023-04-28T05:39:26.323Z,10.88
2023-04-28T05:40:26.274Z,10.91
2023-04-28T05:41:26.266Z,10.91
2023-04-28T05:42:26.319Z,10.93
2023-04-28T05:43:26.249Z,10.94
2023-04-28T05:44:26.251Z,10.94
2023-04-28T05:45:26.222Z,10.95
2023-04-28T05:46:30.698Z,10.95
2023-04-28T05:47:26.227Z,10.98
2023-04-28T05:48:26.149Z,10.99
2023-04-28T05:49:26.160Z,11.02
2023-04-28T05:50:26.124Z,11.05
2023-04-28T05:51:26.204Z,11.06
2023-04-28T05:52:26.096Z,11.08
2023-04-28T05:53:26.139Z,11.06
2023-04-28T05:54:26.169Z,11.09
2023-04-28T05:55:26.078Z,11.09
2023-04-28T05:56:26.072Z,11.12
2023-04-28T05:57:26.146Z,11.11
2023-04-28T05:58:26.056Z,11.11
2023-04-28T05:59:26.036Z,11.11
2023-04-28T06:00:26.112Z,11.12
2023-04-28T06:01:26.010Z,11.09
2023-04-28T06:02:27.964Z,11.12
2023-04-28T06:03:26.281Z,11.13
2023-04-28T06:04:26.746Z,11.13
2023-04-28T06:05:26.479Z,11.13
2023-04-28T06:06:26.064Z,11.16
2023-04-28T06:07:25.968Z,11.19
2023-04-28T06:08:35.225Z,11.20
2023-04-28T06:09:27.762Z,11.23
2023-04-28T06:10:25.892Z,11.24
2023-04-28T06:11:28.611Z,11.26
2023-04-28T06:12:25.840Z,11.24
2023-04-28T06:13:25.907Z,11.26
2023-04-28T06:14:25.886Z,11.28
2023-04-28T06:15:25.907Z,11.31
2023-04-28T06:16:25.949Z,11.33
2023-04-28T06:17:25.832Z,11.33
2023-04-28T06:18:25.834Z,11.33
2023-04-28T06:19:25.897Z,11.35
2023-04-28T06:20:25.764Z,11.38
2023-04-28T06:21:25.770Z,11.41
2023-04-28T06:22:25.763Z,11.41
2023-04-28T06:23:25.716Z,11.41
2023-04-28T06:24:25.756Z,11.42
2023-04-28T06:25:25.703Z,11.41
2023-04-28T06:26:25.699Z,11.41
2023-04-28T06:27:25.681Z,11.39
2023-04-28T06:28:25.665Z,11.39
2023-04-28T06:29:25.707Z,11.39
2023-04-28T06:30:25.680Z,11.41
2023-04-28T06:31:25.761Z,11.41
2023-04-28T06:32:25.645Z,11.45
2023-04-28T06:33:25.582Z,11.48
2023-04-28T06:34:25.572Z,11.53
2023-04-28T06:35:25.583Z,11.57
2023-04-28T06:36:25.536Z,11.63
2023-04-28T06:37:25.536Z,11.64
2023-04-28T06:38:25.524Z,11.69
2023-04-28T06:39:25.546Z,11.70
2023-04-28T06:40:25.543Z,11.74
2023-04-28T06:41:25.526Z,11.77
2023-04-28T06:42:26.922Z,11.81
2023-04-28T06:43:25.490Z,11.81
2023-04-28T06:44:25.462Z,11.85
2023-04-28T06:45:25.427Z,11.88
2023-04-28T06:46:25.437Z,11.88
2023-04-28T06:47:25.462Z,11.93
2023-04-28T06:48:25.379Z,11.85
2023-04-28T06:49:25.395Z,11.88
2023-04-28T06:50:25.457Z,11.93
2023-04-28T06:51:25.383Z,11.97
2023-04-28T06:52:33.124Z,12.01
2023-04-28T06:53:26.341Z,12.01
2023-04-28T06:54:25.329Z,12.00
2023-04-28T06:55:25.285Z,11.98
2023-04-28T06:56:25.302Z,12.01
2023-04-28T06:57:25.295Z,12.01
2023-04-28T06:58:25.276Z,12.03
2023-04-28T06:59:25.469Z,12.03
2023-04-28T07:00:25.357Z,12.05
2023-04-28T07:01:25.293Z,12.05
2023-04-28T07:02:25.371Z,12.07
2023-04-28T07:03:25.473Z,12.05
2023-04-28T07:04:25.392Z,12.05
2023-04-28T07:05:25.206Z,12.03
2023-04-28T07:06:25.178Z,12.01
2023-04-28T07:07:25.144Z,12.03
2023-04-28T07:08:25.169Z,12.04
2023-04-28T07:09:25.178Z,12.04
2023-04-28T07:10:25.136Z,12.07
2023-04-28T07:11:25.122Z,12.08
2023-04-28T07:12:25.067Z,12.12
2023-04-28T07:13:25.085Z,12.13
2023-04-28T07:14:25.094Z,12.11
2023-04-28T07:15:25.138Z,12.12
2023-04-28T07:16:25.090Z,12.12
2023-04-28T07:17:25.171Z,12.13
2023-04-28T07:18:25.027Z,12.13
2023-04-28T07:19:25.003Z,12.12
2023-04-28T07:20:25.029Z,12.11
2023-04-28T07:21:24.983Z,12.07
2023-04-28T07:22:24.948Z,12.11
2023-04-28T07:23:24.985Z,12.11
2023-04-28T07:24:24.938Z,12.12
2023-04-28T07:25:24.972Z,12.12
2023-04-28T07:26:24.940Z,12.13
2023-04-28T07:27:24.896Z,12.12
2023-04-28T07:28:24.905Z,12.12
2023-04-28T07:29:24.867Z,12.12
2023-04-28T07:30:27.770Z,12.12
2023-04-28T07:31:24.948Z,12.11
2023-04-28T07:32:24.922Z,12.11
2023-04-28T07:33:24.820Z,12.12
2023-04-28T07:34:24.852Z,12.08
2023-04-28T07:35:24.938Z,12.11
2023-04-28T07:36:24.833Z,12.12
2023-04-28T07:37:24.757Z,12.13
2023-04-28T07:38:24.749Z,12.13
2023-04-28T07:39:24.750Z,12.12
2023-04-28T07:40:24.732Z,12.13
2023-04-28T07:41:24.707Z,12.15
2023-04-28T07:42:24.701Z,12.19
2023-04-28T07:43:24.717Z,12.21
2023-04-28T07:44:24.681Z,12.25
2023-04-28T07:45:24.734Z,12.30
2023-04-28T07:46:24.708Z,12.34
2023-04-28T07:47:24.648Z,12.37
2023-04-28T07:48:24.676Z,12.44
2023-04-28T07:49:24.671Z,12.51
2023-04-28T07:50:24.634Z,12.59
2023-04-28T07:51:24.582Z,12.67
2023-04-28T07:52:24.628Z,12.73
2023-04-28T07:53:24.587Z,12.79
2023-04-28T07:54:24.599Z,12.84
2023-04-28T07:55:24.548Z,12.89
2023-04-28T07:56:24.525Z,12.94
2023-04-28T07:57:24.495Z,12.94
2023-04-28T07:58:24.515Z,12.96
2023-04-28T07:59:24.527Z,12.96
2023-04-28T08:00:24.477Z,12.96
2023-04-28T08:01:24.545Z,12.96
2023-04-28T08:02:24.539Z,12.95
2023-04-28T08:03:24.646Z,12.94
2023-04-28T08:04:24.871Z,12.91
2023-04-28T08:05:24.508Z,12.88
2023-04-28T08:06:24.400Z,12.91
2023-04-28T08:07:24.377Z,12.92
2023-04-28T08:08:24.396Z,12.94
2023-04-28T08:09:24.394Z,12.95
2023-04-28T08:10:24.346Z,12.94
2023-04-28T08:11:24.356Z,12.91
2023-04-28T08:12:24.293Z,12.91
2023-04-28T08:13:24.315Z,12.92
2023-04-28T08:14:24.281Z,12.92
2023-04-28T08:15:24.270Z,12.95
2023-04-28T08:16:24.350Z,12.98
2023-04-28T08:17:24.312Z,13.01
2023-04-28T08:18:24.273Z,13.03
2023-04-28T08:19:24.234Z,13.06
2023-04-28T08:20:24.910Z,13.10
2023-04-28T08:21:24.193Z,13.14
2023-04-28T08:22:24.201Z,13.14
2023-04-28T08:23:24.249Z,13.19
2023-04-28T08:24:24.152Z,13.19
2023-04-28T08:25:24.148Z,13.17
2023-04-28T08:26:24.172Z,13.21
2023-04-28T08:27:24.136Z,13.22
2023-04-28T08:28:24.120Z,13.24
2023-04-28T08:29:24.229Z,13.25
2023-04-28T08:30:24.078Z,13.27
2023-04-28T08:31:24.239Z,13.29
2023-04-28T08:32:24.069Z,13.32
2023-04-28T08:33:24.036Z,13.31
2023-04-28T08:34:24.068Z,13.35
2023-04-28T08:35:24.034Z,13.39
2023-04-28T08:36:23.973Z,13.46
2023-04-28T08:37:24.180Z,13.51
2023-04-28T08:38:23.993Z,13.54
2023-04-28T08:39:23.998Z,13.59
2023-04-28T08:40:23.978Z,13.62
2023-04-28T08:41:23.924Z,13.63
2023-04-28T08:42:23.925Z,13.66
2023-04-28T08:43:23.925Z,13.68
2023-04-28T08:44:23.929Z,13.69
2023-04-28T08:45:23.886Z,13.72
2023-04-28T08:46:23.985Z,13.71
2023-04-28T08:47:23.918Z,13.73
2023-04-28T08:48:24.087Z,13.72
2023-04-28T08:49:23.849Z,13.73
2023-04-28T08:50:23.850Z,13.75
2023-04-28T08:51:23.811Z,13.75
2023-04-28T08:52:23.805Z,13.73
2023-04-28T08:53:23.822Z,13.71
2023-04-28T08:54:29.064Z,13.71
2023-04-28T08:55:24.755Z,13.71
2023-04-28T08:56:23.727Z,13.71
2023-04-28T08:57:23.736Z,13.69
2023-04-28T08:58:23.714Z,13.69
2023-04-28T08:59:23.764Z,13.71
2023-04-28T09:00:23.715Z,13.68
2023-04-28T09:01:23.774Z,13.68
2023-04-28T09:02:23.892Z,13.66
2023-04-28T09:03:23.943Z,13.68
2023-04-28T09:04:24.054Z,13.66
2023-04-28T09:05:23.906Z,13.66
2023-04-28T09:06:23.626Z,13.65
2023-04-28T09:07:23.620Z,13.66
2023-04-28T09:08:23.636Z,13.65
2023-04-28T09:09:23.575Z,13.65
2023-04-28T09:10:23.580Z,13.65
2023-04-28T09:11:23.550Z,13.66
2023-04-28T09:12:23.515Z,13.68
2023-04-28T09:13:23.502Z,13.71
2023-04-28T09:14:23.532Z,13.73
2023-04-28T09:15:23.496Z,13.75
2023-04-28T09:16:23.653Z,13.79
2023-04-28T09:17:23.552Z,13.75
2023-04-28T09:18:23.475Z,13.73
2023-04-28T09:19:23.444Z,13.72
2023-04-28T09:20:23.473Z,13.72
2023-04-28T09:21:23.475Z,13.75
2023-04-28T09:22:26.646Z,13.76
2023-04-28T09:23:23.365Z,13.80
2023-04-28T09:24:23.406Z,13.83
2023-04-28T09:25:23.352Z,13.84
2023-04-28T09:26:23.369Z,13.86
2023-04-28T09:27:23.363Z,13.88
2023-04-28T09:28:23.391Z,13.90
2023-04-28T09:29:23.317Z,13.90
2023-04-28T09:30:23.348Z,13.93
2023-04-28T09:31:23.346Z,13.93
2023-04-28T09:32:23.689Z,13.94
2023-04-28T09:33:23.316Z,13.96
2023-04-28T09:34:23.256Z,13.99
2023-04-28T09:35:23.253Z,14.01
2023-04-28T09:36:23.241Z,13.99
2023-04-28T09:37:23.223Z,13.99
2023-04-28T09:38:23.304Z,13.98
2023-04-28T09:39:23.267Z,13.99
2023-04-28T09:40:23.248Z,13.98
2023-04-28T09:41:23.220Z,13.93
2023-04-28T09:42:23.191Z,13.88
2023-04-28T09:43:23.176Z,13.86
2023-04-28T09:44:23.114Z,13.80
2023-04-28T09:45:23.150Z,13.76
2023-04-28T09:46:23.128Z,13.73
2023-04-28T09:47:23.056Z,13.71
2023-04-28T09:48:23.119Z,13.69
2023-04-28T09:49:23.093Z,13.69
2023-04-28T09:50:23.059Z,13.69
2023-04-28T09:51:23.012Z,13.68
2023-04-28T09:52:23.011Z,13.66
2023-04-28T09:53:22.997Z,13.66
2023-04-28T09:54:23.033Z,13.65
2023-04-28T09:55:22.981Z,13.63
2023-04-28T09:56:23.002Z,13.63
2023-04-28T09:57:23.248Z,13.63
2023-04-28T09:58:22.994Z,13.63
2023-04-28T09:59:22.971Z,13.63
2023-04-28T10:00:22.962Z,13.61
2023-04-28T10:01:22.880Z,13.59
2023-04-28T10:02:42.763Z,13.57
2023-04-28T10:03:25.116Z,13.61
2023-04-28T10:04:23.127Z,13.59
2023-04-28T10:05:23.335Z,13.59
2023-04-28T10:06:23.396Z,13.59
2023-04-28T10:07:22.900Z,13.62
2023-04-28T10:08:22.806Z,13.65
2023-04-28T10:09:24.803Z,13.68
2023-04-28T10:10:22.851Z,13.71
2023-04-28T10:11:22.824Z,13.72
2023-04-28T10:12:22.798Z,13.73
2023-04-28T10:13:22.818Z,13.75
2023-04-28T10:14:22.784Z,13.73
2023-04-28T10:15:22.725Z,13.75
2023-04-28T10:16:22.809Z,13.75
2023-04-28T10:17:22.764Z,13.76
2023-04-28T10:18:22.678Z,13.75
2023-04-28T10:19:22.691Z,13.79
2023-04-28T10:20:22.728Z,13.79
2023-04-28T10:21:22.618Z,13.83
2023-04-28T10:22:22.682Z,13.84
2023-04-28T10:23:22.648Z,13.83
2023-04-28T10:24:22.684Z,13.86
2023-04-28T10:25:22.613Z,13.87
2023-04-28T10:26:22.613Z,13.88
2023-04-28T10:27:22.702Z,13.88
2023-04-28T10:28:22.607Z,13.87
2023-04-28T10:29:22.550Z,13.87
2023-04-28T10:30:28.363Z,13.87
2023-04-28T10:31:23.621Z,13.87
2023-04-28T10:32:22.534Z,13.87
2023-04-28T10:33:22.505Z,13.88
2023-04-28T10:34:22.526Z,13.87
2023-04-28T10:35:22.499Z,13.86
2023-04-28T10:36:35.717Z,13.86
2023-04-28T10:37:23.591Z,13.84
2023-04-28T10:38:22.427Z,13.84
2023-04-28T10:39:22.471Z,13.83
2023-04-28T10:40:22.462Z,13.83
2023-04-28T10:41:22.410Z,13.84
2023-04-28T10:42:22.405Z,13.86
2023-04-28T10:43:22.366Z,13.87
2023-04-28T10:44:22.368Z,13.90
2023-04-28T10:45:22.334Z,13.93
2023-04-28T10:46:22.359Z,13.93
2023-04-28T10:47:22.332Z,13.93
2023-04-28T10:48:22.284Z,13.93
2023-04-28T10:49:22.282Z,13.93
2023-04-28T10:50:29.339Z,13.98
2023-04-28T10:51:23.273Z,13.98
2023-04-28T10:52:22.256Z,13.99
2023-04-28T10:53:22.232Z,14.01
2023-04-28T10:54:22.236Z,13.99
2023-04-28T10:55:22.718Z,14.02
2023-04-28T10:56:22.194Z,14.04
2023-04-28T10:57:22.193Z,14.05
2023-04-28T10:58:22.152Z,14.09
2023-04-28T10:59:22.151Z,14.12
2023-04-28T11:00:22.171Z,14.19
2023-04-28T11:01:22.550Z,14.21
2023-04-28T11:02:22.229Z,14.26
2023-04-28T11:03:22.218Z,14.29
2023-04-28T11:04:22.367Z,14.35
2023-04-28T11:05:22.243Z,14.41
2023-04-28T11:06:22.103Z,14.44
2023-04-28T11:07:22.079Z,14.45
2023-04-28T11:08:22.059Z,14.46
2023-04-28T11:09:22.000Z,14.48
2023-04-28T11:10:22.032Z,14.53
2023-04-28T11:11:21.995Z,14.56
2023-04-28T11:12:21.978Z,14.59
2023-04-28T11:13:21.959Z,14.59
2023-04-28T11:14:21.991Z,14.61
2023-04-28T11:15:21.952Z,14.67
2023-04-28T11:16:22.036Z,14.74
2023-04-28T11:17:21.925Z,14.82
2023-04-28T11:18:21.917Z,14.86
2023-04-28T11:19:21.868Z,14.87
2023-04-28T11:20:21.926Z,14.93
2023-04-28T11:21:21.893Z,15.01
2023-04-28T11:22:21.912Z,15.07
2023-04-28T11:23:21.839Z,15.13
2023-04-28T11:24:21.861Z,15.18
2023-04-28T11:25:21.820Z,15.22
2023-04-28T11:26:21.833Z,15.33
2023-04-28T11:27:21.788Z,15.44
2023-04-28T11:28:21.817Z,15.59
2023-04-28T11:29:21.764Z,15.62
2023-04-28T11:30:21.831Z,15.60
2023-04-28T11:31:21.779Z,15.64
2023-04-28T11:32:21.725Z,15.64
2023-04-28T11:33:21.701Z,15.68
2023-04-28T11:34:21.743Z,15.74
2023-04-28T11:35:21.697Z,15.81
2023-04-28T11:36:21.695Z,15.86
2023-04-28T11:37:21.648Z,15.91
2023-04-28T11:38:21.638Z,15.91
2023-04-28T11:39:21.636Z,15.95
2023-04-28T11:40:21.619Z,15.96
2023-04-28T11:41:21.664Z,15.99
2023-04-28T11:42:21.586Z,15.95
2023-04-28T11:43:21.584Z,15.86
2023-04-28T11:44:21.604Z,15.85
2023-04-28T11:45:21.537Z,15.81
2023-04-28T11:46:21.689Z,15.86
2023-04-28T11:47:21.504Z,15.89
2023-04-28T11:48:21.569Z,15.89
2023-04-28T11:49:21.508Z,15.86
2023-04-28T11:50:21.482Z,15.85
2023-04-28T11:51:21.538Z,15.88
2023-04-28T11:52:21.459Z,15.88
2023-04-28T11:53:22.213Z,15.88
2023-04-28T11:54:21.466Z,15.92
2023-04-28T11:55:21.433Z,15.99
2023-04-28T11:56:21.429Z,16.07
2023-04-28T11:57:21.691Z,16.11
2023-04-28T11:58:21.434Z,16.10
2023-04-28T11:59:21.357Z,16.11
2023-04-28T12:00:21.371Z,16.22
2023-04-28T12:01:21.382Z,16.22
2023-04-28T12:02:21.501Z,16.25
2023-04-28T12:03:21.438Z,16.22
2023-04-28T12:04:21.431Z,16.17
2023-04-28T12:05:21.363Z,16.18
2023-04-28T12:06:21.326Z,16.25
2023-04-28T12:07:22.055Z,16.27
2023-04-28T12:08:21.258Z,16.25
2023-04-28T12:09:28.894Z,16.25
2023-04-28T12:10:21.247Z,16.29
2023-04-28T12:11:22.010Z,16.30
2023-04-28T12:12:26.353Z,16.37
2023-04-28T12:13:22.234Z,16.42
2023-04-28T12:14:21.247Z,16.48
2023-04-28T12:15:22.195Z,16.55
2023-04-28T12:16:21.241Z,16.60
2023-04-28T12:17:21.184Z,16.67
2023-04-28T12:18:21.158Z,16.72
2023-04-28T12:19:21.134Z,16.80
2023-04-28T12:20:21.105Z,16.78
2023-04-28T12:21:21.097Z,16.80
2023-04-28T12:22:21.090Z,16.78
2023-04-28T12:23:21.114Z,16.82
2023-04-28T12:24:21.082Z,16.87
2023-04-28T12:25:22.104Z,16.88
2023-04-28T12:26:21.107Z,16.88
2023-04-28T12:27:21.013Z,16.88
2023-04-28T12:28:20.995Z,16.87
2023-04-28T12:29:20.971Z,16.90
2023-04-28T12:30:20.993Z,16.98
2023-04-28T12:31:21.031Z,17.02
2023-04-28T12:32:20.958Z,17.06
2023-04-28T12:33:20.916Z,17.09
2023-04-28T12:34:20.939Z,17.07
2023-04-28T12:35:20.982Z,17.10
2023-04-28T12:36:20.932Z,17.12
2023-04-28T12:37:20.898Z,17.14
2023-04-28T12:38:20.879Z,17.18
2023-04-28T12:39:20.882Z,17.15
2023-04-28T12:40:20.885Z,17.15
2023-04-28T12:41:20.856Z,17.15
2023-04-28T12:42:21.568Z,17.12
2023-04-28T12:43:20.796Z,17.12
2023-04-28T12:44:20.800Z,17.22
2023-04-28T12:45:20.831Z,17.32
2023-04-28T12:46:20.887Z,17.39
2023-04-28T12:47:20.756Z,17.46
2023-04-28T12:48:20.751Z,17.46
2023-04-28T12:49:20.771Z,17.47
2023-04-28T12:50:20.748Z,17.54
2023-04-28T12:51:20.729Z,17.65
2023-04-28T12:52:20.799Z,17.73